createdAt,value
2024-03-13T00:00:00.377Z,16.27
2024-03-13T00:02:26.624Z,16.23
2024-03-13T00:04:52.875Z,16.19
2024-03-13T00:07:19.225Z,16.14
2024-03-13T00:09:45.619Z,16.09
2024-03-13T00:12:11.921Z,16.05
2024-03-13T00:14:38.196Z,16.00
2024-03-13T00:17:04.454Z,15.96
2024-03-13T00:19:31.832Z,15.91
2024-03-13T00:21:58.153Z,15.87
2024-03-13T00:24:24.419Z,15.82
2024-03-13T00:26:50.675Z,15.79
2024-03-13T00:29:16.907Z,15.76
2024-03-13T00:31:43.130Z,15.73
2024-03-13T00:34:09.438Z,15.70
2024-03-13T00:36:35.819Z,15.66
2024-03-13T00:39:02.067Z,15.63
2024-03-13T00:41:28.357Z,15.59
2024-03-13T00:43:54.728Z,15.57
2024-03-13T00:46:21.469Z,15.55
2024-03-13T00:48:47.861Z,15.51
2024-03-13T00:51:14.121Z,15.48
2024-03-13T00:53:40.411Z,15.46
2024-03-13T00:56:06.671Z,15.45
2024-03-13T00:58:32.970Z,15.42
2024-03-13T01:01:05.558Z,15.40
2024-03-13T01:03:31.954Z,15.37
2024-03-13T01:05:58.173Z,15.35
2024-03-13T01:08:24.422Z,15.33
2024-03-13T01:10:50.733Z,15.31
2024-03-13T01:13:17.114Z,15.30
2024-03-13T01:15:43.511Z,15.28
2024-03-13T01:18:09.931Z,15.26
2024-03-13T01:20:36.239Z,15.24
2024-03-13T01:23:02.573Z,15.21
2024-03-13T01:25:28.857Z,15.17
2024-03-13T01:27:55.161Z,15.13
2024-03-13T01:30:21.496Z,15.09
2024-03-13T01:32:47.818Z,15.05
2024-03-13T01:35:14.149Z,15.03
2024-03-13T01:37:40.417Z,15.01
2024-03-13T01:40:06.779Z,15.00
2024-03-13T01:42:33.091Z,14.96
2024-03-13T01:44:59.354Z,14.93
2024-03-13T01:47:25.738Z,14.91
2024-03-13T01:49:52.011Z,14.89
2024-03-13T01:52:18.312Z,14.87
2024-03-13T01:54:44.609Z,14.85
2024-03-13T01:57:10.927Z,14.82
2024-03-13T01:59:37.190Z,14.79
2024-03-13T02:02:03.578Z,14.76
2024-03-13T02:04:30.306Z,14.76
2024-03-13T02:06:56.591Z,14.74
2024-03-13T02:09:25.056Z,14.73
2024-03-13T02:11:51.347Z,14.71
2024-03-13T02:14:17.625Z,14.70
2024-03-13T02:16:43.932Z,14.69
2024-03-13T02:19:10.352Z,14.65
2024-03-13T02:21:36.688Z,14.66
2024-03-13T02:24:02.920Z,14.64
2024-03-13T02:26:29.170Z,14.62
2024-03-13T02:28:55.555Z,14.60
2024-03-13T02:31:21.966Z,14.59
2024-03-13T02:33:48.401Z,14.57
2024-03-13T02:36:15.106Z,14.54
2024-03-13T02:38:41.445Z,14.52
2024-03-13T02:41:07.681Z,14.50
2024-03-13T02:43:34.219Z,14.49
2024-03-13T02:46:00.581Z,14.47
2024-03-13T02:48:26.854Z,14.46
2024-03-13T02:50:53.251Z,14.45
2024-03-13T02:53:19.550Z,14.45
2024-03-13T02:55:45.833Z,14.44
2024-03-13T02:58:12.112Z,14.44
2024-03-13T03:00:38.391Z,14.43
2024-03-13T03:03:04.777Z,14.42
2024-03-13T03:05:31.065Z,14.42
2024-03-13T03:07:57.355Z,14.40
2024-03-13T03:10:23.761Z,14.39
2024-03-13T03:12:50.111Z,14.39
2024-03-13T03:15:16.404Z,14.37
2024-03-13T03:17:42.682Z,14.37
2024-03-13T03:20:08.930Z,14.37
2024-03-13T03:22:35.272Z,14.34
2024-03-13T03:25:01.639Z,14.34
2024-03-13T03:27:27.925Z,14.30
2024-03-13T03:29:54.174Z,14.28
2024-03-13T03:32:20.401Z,14.27
2024-03-13T03:34:46.627Z,14.25
2024-03-13T03:37:12.940Z,14.24
2024-03-13T03:39:39.305Z,14.22
2024-03-13T03:42:05.641Z,14.19
2024-03-13T03:44:31.967Z,14.16
2024-03-13T03:46:58.195Z,14.15
2024-03-13T03:49:24.513Z,14.10
2024-03-13T03:51:50.870Z,14.08
2024-03-13T03:54:17.255Z,14.06
2024-03-13T03:56:44.733Z,13.97
2024-03-13T03:59:11.221Z,14.03
2024-03-13T04:01:37.572Z,14.05
2024-03-13T04:04:03.958Z,14.06
2024-03-13T04:06:30.241Z,14.03
2024-03-13T04:08:56.494Z,14.04
2024-03-13T04:11:22.877Z,14.02
2024-03-13T04:13:49.847Z,14.01
2024-03-13T04:16:16.102Z,14.00
2024-03-13T04:18:42.416Z,13.99
2024-03-13T04:21:08.955Z,13.97
2024-03-13T04:23:35.221Z,13.96
2024-03-13T04:26:01.519Z,13.95
2024-03-13T04:28:27.821Z,13.95
2024-03-13T04:30:54.150Z,13.95
2024-03-13T04:33:20.592Z,13.95
2024-03-13T04:35:46.868Z,13.95
2024-03-13T04:38:13.176Z,13.94
2024-03-13T04:40:39.557Z,13.95
2024-03-13T04:43:05.906Z,13.96
2024-03-13T04:45:32.168Z,13.96
2024-03-13T04:47:58.476Z,13.96
2024-03-13T04:50:24.818Z,13.95
2024-03-13T04:52:51.057Z,13.95
2024-03-13T04:55:17.453Z,13.93
2024-03-13T04:57:43.690Z,13.91
2024-03-13T05:00:09.936Z,13.89
2024-03-13T05:02:38.359Z,13.87
2024-03-13T05:05:06.655Z,13.87
2024-03-13T05:07:33.048Z,13.88
2024-03-13T05:09:59.386Z,13.87
2024-03-13T05:12:25.673Z,13.88
2024-03-13T05:14:52.018Z,13.87
2024-03-13T05:17:18.312Z,13.87
2024-03-13T05:19:44.719Z,13.87
2024-03-13T05:22:11.437Z,13.86
2024-03-13T05:24:37.707Z,13.87
2024-03-13T05:27:03.952Z,13.88
2024-03-13T05:29:30.268Z,13.87
2024-03-13T05:31:56.526Z,13.86
2024-03-13T05:34:22.907Z,13.88
2024-03-13T05:36:49.263Z,13.86
2024-03-13T05:39:15.536Z,13.88
2024-03-13T05:41:41.893Z,13.88
2024-03-13T05:44:08.105Z,13.87
2024-03-13T05:46:34.365Z,13.86
2024-03-13T05:49:00.691Z,13.86
2024-03-13T05:51:26.963Z,13.85
2024-03-13T05:53:53.213Z,13.86
2024-03-13T05:56:19.443Z,13.86
2024-03-13T05:58:45.688Z,13.86
2024-03-13T06:01:11.971Z,13.85
2024-03-13T06:03:38.346Z,13.84
2024-03-13T06:06:06.152Z,13.85
2024-03-13T06:08:32.420Z,13.83
2024-03-13T06:10:58.655Z,13.82
2024-03-13T06:13:28.045Z,13.81
2024-03-13T06:15:54.377Z,13.81
2024-03-13T06:18:20.632Z,13.82
2024-03-13T06:20:46.945Z,13.81
2024-03-13T06:23:13.231Z,13.82
2024-03-13T06:25:39.516Z,13.80
2024-03-13T06:28:05.866Z,13.80
2024-03-13T06:30:32.335Z,13.80
2024-03-13T06:32:58.870Z,13.72
2024-03-13T06:35:25.244Z,13.83
2024-03-13T06:37:51.526Z,13.84
2024-03-13T06:40:17.822Z,13.85
2024-03-13T06:42:44.111Z,13.88
2024-03-13T06:45:14.091Z,13.89
2024-03-13T06:47:42.651Z,13.93
2024-03-13T06:50:08.914Z,14.00
2024-03-13T06:52:35.224Z,14.30
2024-03-13T06:55:01.558Z,14.28
2024-03-13T06:57:27.871Z,14.25
2024-03-13T06:59:56.276Z,14.28
2024-03-13T07:02:24.006Z,14.42
2024-03-13T07:04:50.827Z,14.80
2024-03-13T07:07:17.072Z,14.78
2024-03-13T07:09:43.310Z,15.06
2024-03-13T07:12:09.633Z,15.10
2024-03-13T07:14:35.998Z,15.29
2024-03-13T07:17:02.273Z,15.57
2024-03-13T07:19:28.702Z,15.85
2024-03-13T07:21:55.137Z,16.16
2024-03-13T07:24:21.404Z,16.67
2024-03-13T07:26:47.671Z,17.09
2024-03-13T07:29:13.934Z,17.67
2024-03-13T07:31:41.081Z,18.28
2024-03-13T07:34:07.610Z,18.32
2024-03-13T07:36:33.938Z,18.42
2024-03-13T07:39:00.200Z,18.55
2024-03-13T07:41:26.470Z,18.68
2024-03-13T07:43:52.768Z,18.83
2024-03-13T07:46:19.127Z,19.08
2024-03-13T07:48:45.674Z,19.50
2024-03-13T07:51:11.946Z,19.72
2024-03-13T07:53:38.166Z,19.85
2024-03-13T07:56:04.410Z,19.97
2024-03-13T07:58:30.747Z,20.14
2024-03-13T08:00:57.166Z,20.28
2024-03-13T08:03:23.481Z,20.44
2024-03-13T08:05:49.755Z,20.58
2024-03-13T09:05:56.482Z,20.56
2024-03-13T09:08:35.510Z,20.53
2024-03-13T09:11:09.789Z,20.54
2024-03-13T09:13:38.307Z,20.55
2024-03-13T09:16:04.571Z,20.55
2024-03-13T09:18:31.864Z,20.53
2024-03-13T09:20:58.247Z,20.52
2024-03-13T09:23:24.511Z,20.51
2024-03-13T09:25:50.796Z,20.49
2024-03-13T09:28:17.066Z,20.49
2024-03-13T09:30:43.337Z,20.45
2024-03-13T09:33:09.789Z,20.45
2024-03-13T09:35:36.229Z,20.45
2024-03-13T09:38:02.621Z,20.47
2024-03-13T09:40:28.894Z,20.51
2024-03-13T09:42:55.197Z,20.58
2024-03-13T09:45:21.539Z,20.60
2024-03-13T09:47:47.924Z,20.57
2024-03-13T09:50:14.393Z,20.53
2024-03-13T09:52:40.651Z,20.49
2024-03-13T09:55:06.973Z,20.43
2024-03-13T09:57:35.438Z,20.41
2024-03-13T10:00:01.771Z,20.38
2024-03-13T10:02:28.106Z,20.38
2024-03-13T10:04:54.400Z,20.39
2024-03-13T10:07:20.958Z,20.42
2024-03-13T10:09:47.270Z,20.45
2024-03-13T10:12:13.703Z,20.46
2024-03-13T10:14:40.095Z,20.46
2024-03-13T10:17:06.459Z,20.46
2024-03-13T10:19:32.779Z,20.46
2024-03-13T10:21:59.059Z,20.46
2024-03-13T10:24:25.487Z,20.47
2024-03-13T10:26:51.798Z,20.48
2024-03-13T10:29:18.024Z,20.48
2024-03-13T10:31:44.283Z,20.47
2024-03-13T10:34:10.616Z,20.46
2024-03-13T10:36:36.859Z,20.46
2024-03-13T10:39:03.119Z,20.50
2024-03-13T10:41:29.403Z,20.52
2024-03-13T10:43:55.726Z,20.52
2024-03-13T10:46:22.019Z,20.50
2024-03-13T10:48:48.318Z,20.50
2024-03-13T10:51:15.076Z,20.51
2024-03-13T10:53:41.770Z,20.54
2024-03-13T10:56:08.118Z,20.57
2024-03-13T10:58:34.391Z,20.58
2024-03-13T11:01:00.684Z,20.62
2024-03-13T11:03:26.955Z,20.65
2024-03-13T11:05:53.276Z,20.68
2024-03-13T11:08:19.566Z,20.68
2024-03-13T11:10:54.383Z,20.67
2024-03-13T11:13:27.909Z,20.65
2024-03-13T11:15:54.163Z,20.64
2024-03-13T11:18:20.504Z,20.61
2024-03-13T11:20:46.867Z,20.61
2024-03-13T11:23:13.145Z,20.62
2024-03-13T11:25:39.402Z,20.64
2024-03-13T11:28:05.677Z,20.64
2024-03-13T11:30:32.093Z,20.64
2024-03-13T11:32:58.663Z,20.64
2024-03-13T11:35:25.018Z,20.63
2024-03-13T11:37:51.315Z,20.62
2024-03-13T11:40:17.571Z,20.62
2024-03-13T11:42:43.830Z,20.61
2024-03-13T11:45:10.153Z,20.62
2024-03-13T11:47:36.507Z,20.61
2024-03-13T11:50:02.829Z,20.62
2024-03-13T11:52:29.168Z,20.63
2024-03-13T11:54:55.449Z,20.64
2024-03-13T11:57:21.818Z,20.66
2024-03-13T11:59:48.145Z,20.67
2024-03-13T12:02:14.459Z,20.67
2024-03-13T12:04:40.775Z,20.70
2024-03-13T12:07:06.993Z,20.72
2024-03-13T12:09:33.293Z,20.75
2024-03-13T12:11:59.533Z,20.78
2024-03-13T12:14:25.889Z,20.80
2024-03-13T12:16:52.177Z,20.83
2024-03-13T12:19:18.481Z,20.84
2024-03-13T12:21:44.770Z,20.86
2024-03-13T12:24:11.160Z,20.86
2024-03-13T12:26:37.606Z,20.84
2024-03-13T12:29:03.898Z,20.84
2024-03-13T12:31:30.156Z,20.83
2024-03-13T12:33:56.693Z,20.83
2024-03-13T12:36:23.164Z,20.83
2024-03-13T12:38:49.593Z,20.81
2024-03-13T12:41:15.912Z,20.79
2024-03-13T12:43:44.711Z,20.78
2024-03-13T12:46:12.326Z,20.77
2024-03-13T12:48:38.666Z,20.77
2024-03-13T12:51:05.146Z,20.78
2024-03-13T12:53:31.551Z,20.79
2024-03-13T12:55:57.824Z,20.80
2024-03-13T12:58:24.368Z,20.81
2024-03-13T13:00:50.639Z,20.81
2024-03-13T13:03:16.991Z,20.82
2024-03-13T13:05:44.571Z,20.82
2024-03-13T13:08:10.910Z,20.84
2024-03-13T13:10:37.208Z,20.84
2024-03-13T13:13:03.460Z,20.84
2024-03-13T13:15:31.014Z,20.83
2024-03-13T13:17:57.439Z,20.83
2024-03-13T13:20:23.742Z,20.82
2024-03-13T13:22:49.976Z,20.82
2024-03-13T13:25:16.256Z,20.83
2024-03-13T13:27:43.996Z,20.85
2024-03-13T13:30:10.360Z,20.85
2024-03-13T13:32:36.718Z,20.87
2024-03-13T13:35:03.019Z,20.88
2024-03-13T13:37:29.341Z,20.89
2024-03-13T13:39:55.688Z,20.89
2024-03-13T13:42:21.985Z,20.88
2024-03-13T13:44:48.260Z,20.87
2024-03-13T13:47:15.344Z,20.88
2024-03-13T13:49:41.645Z,20.89
2024-03-13T13:52:07.922Z,20.89
2024-03-13T13:54:34.435Z,20.89
2024-03-13T13:57:00.941Z,20.89
2024-03-13T13:59:27.406Z,20.91
2024-03-13T14:01:54.027Z,20.92
2024-03-13T14:04:20.327Z,20.93
2024-03-13T14:06:46.594Z,20.93
2024-03-13T14:09:12.902Z,20.95
2024-03-13T14:11:39.340Z,20.95
2024-03-13T14:14:06.624Z,20.96
2024-03-13T14:16:32.935Z,20.96
2024-03-13T14:19:00.100Z,20.96
2024-03-13T14:21:26.736Z,20.94
2024-03-13T14:23:53.128Z,20.93
2024-03-13T14:26:19.575Z,20.93
2024-03-13T14:28:45.867Z,20.94
2024-03-13T14:31:12.136Z,20.93
2024-03-13T14:33:38.466Z,20.93
2024-03-13T14:36:05.012Z,20.93
2024-03-13T14:38:31.376Z,20.91
2024-03-13T14:40:59.719Z,20.90
2024-03-13T14:43:26.157Z,20.91
2024-03-13T14:45:52.419Z,20.90
2024-03-13T14:48:18.755Z,20.91
2024-03-13T14:50:45.043Z,20.91
2024-03-13T14:53:13.837Z,20.91
2024-03-13T14:55:40.298Z,20.90
2024-03-13T15:01:01.590Z,20.89
2024-03-13T15:03:34.809Z,20.89
2024-03-13T15:06:01.199Z,20.89
2024-03-13T15:08:27.514Z,20.90
2024-03-13T15:10:53.755Z,20.90
2024-03-13T15:13:20.052Z,20.89
2024-03-13T15:15:46.852Z,20.89
2024-03-13T15:18:13.184Z,20.88
2024-03-13T15:23:24.603Z,20.89
2024-03-13T15:25:50.902Z,20.88
2024-03-13T15:28:17.171Z,20.88
2024-03-13T15:30:44.486Z,20.88
2024-03-13T15:33:10.823Z,20.87
2024-03-13T15:35:37.218Z,20.87
2024-03-13T15:38:03.463Z,20.86
2024-03-13T15:40:29.687Z,20.86
2024-03-13T15:42:55.924Z,20.84
2024-03-13T15:45:22.266Z,20.84
2024-03-13T15:47:48.806Z,20.84
2024-03-13T15:50:24.599Z,20.81
2024-03-13T15:52:55.909Z,20.82
2024-03-13T15:55:22.139Z,20.82
2024-03-13T15:57:48.336Z,20.81
2024-03-13T16:00:14.604Z,20.80
2024-03-13T16:02:42.226Z,20.79
2024-03-13T16:05:09.936Z,20.78
2024-03-13T16:07:36.149Z,20.77
2024-03-13T16:10:02.444Z,20.76
2024-03-13T16:12:28.859Z,20.75
2024-03-13T16:14:55.191Z,20.73
2024-03-13T16:17:21.481Z,20.72
2024-03-13T16:19:47.755Z,20.70
2024-03-13T16:22:14.102Z,20.69
2024-03-13T16:24:40.504Z,20.68
2024-03-13T16:27:07.058Z,20.66
2024-03-13T16:29:33.680Z,20.66
2024-03-13T16:32:00.395Z,20.63
2024-03-13T16:34:27.074Z,20.61
2024-03-13T16:36:54.820Z,20.59
2024-03-13T16:39:21.522Z,20.58
2024-03-13T16:41:48.439Z,20.57
2024-03-13T16:44:18.662Z,20.55
2024-03-13T16:46:45.633Z,20.53
2024-03-13T16:49:12.031Z,20.52
2024-03-13T16:51:39.837Z,20.51
2024-03-13T16:54:06.536Z,20.50
2024-03-13T16:56:32.993Z,20.47
2024-03-13T16:59:00.773Z,20.47
2024-03-13T17:01:40.210Z,20.45
2024-03-13T17:04:20.074Z,20.44
2024-03-13T17:06:55.249Z,20.43
2024-03-13T17:09:25.471Z,20.41
2024-03-13T17:11:54.966Z,20.40
2024-03-13T17:14:27.016Z,20.38
2024-03-13T17:16:54.754Z,20.36
2024-03-13T17:19:21.295Z,20.35
2024-03-13T17:21:48.087Z,20.34
2024-03-13T17:24:14.534Z,20.32
2024-03-13T17:26:45.356Z,20.31
2024-03-13T17:29:12.034Z,20.30
2024-03-13T17:31:47.625Z,20.28
2024-03-13T17:34:23.330Z,20.28
2024-03-13T17:36:50.966Z,20.27
2024-03-13T17:39:22.941Z,20.25
2024-03-13T17:41:49.582Z,20.24
2024-03-13T17:44:17.134Z,20.23
2024-03-13T17:46:43.698Z,20.24
2024-03-13T17:49:13.980Z,20.22
2024-03-13T17:51:43.961Z,20.22
2024-03-13T17:54:12.449Z,20.20
2024-03-13T17:56:51.004Z,20.19
2024-03-13T17:59:21.765Z,20.17
2024-03-13T18:01:53.135Z,20.17
2024-03-13T18:04:22.757Z,20.17
2024-03-13T18:06:50.757Z,20.14
2024-03-13T18:09:17.353Z,20.15
2024-03-13T18:11:43.992Z,20.13
2024-03-13T18:14:10.467Z,20.13
2024-03-13T18:16:36.799Z,20.12
2024-03-13T18:19:04.796Z,20.11
2024-03-13T18:21:31.575Z,20.09
2024-03-13T18:23:57.941Z,20.10
2024-03-13T18:26:24.283Z,20.09
2024-03-13T18:28:50.586Z,20.09
2024-03-13T18:31:16.862Z,20.08
2024-03-13T18:33:43.279Z,20.06
2024-03-13T18:36:09.631Z,20.06
2024-03-13T18:38:35.975Z,20.05
2024-03-13T18:41:02.356Z,20.04
2024-03-13T18:43:28.622Z,20.03
2024-03-13T18:45:54.907Z,20.03
2024-03-13T18:48:21.368Z,20.02
2024-03-13T18:50:47.835Z,20.01
2024-03-13T18:53:15.369Z,19.99
2024-03-13T18:55:41.695Z,20.00
2024-03-13T18:58:08.037Z,19.98
2024-03-13T19:00:37.534Z,19.98
2024-03-13T19:03:03.937Z,19.97
2024-03-13T19:05:30.291Z,19.97
2024-03-13T19:07:56.661Z,19.96
2024-03-13T19:10:26.567Z,19.94
2024-03-13T19:12:54.266Z,19.94
2024-03-13T19:15:20.573Z,19.93
2024-03-13T19:17:46.942Z,19.92
2024-03-13T19:20:13.251Z,19.90
2024-03-13T19:22:39.553Z,19.89
2024-03-13T19:25:05.825Z,19.89
2024-03-13T19:27:32.064Z,19.87
2024-03-13T19:29:58.423Z,19.88
2024-03-13T19:32:24.791Z,19.87
2024-03-13T19:34:51.106Z,19.88
2024-03-13T19:37:18.724Z,19.87
2024-03-13T19:39:45.055Z,19.87
2024-03-13T19:42:11.385Z,19.88
2024-03-13T19:44:37.712Z,19.87
2024-03-13T19:47:04.034Z,19.86
2024-03-13T19:49:30.380Z,19.86
2024-03-13T19:51:56.656Z,19.86
2024-03-13T19:54:23.370Z,19.87
2024-03-13T19:56:49.780Z,19.88
2024-03-13T19:59:16.025Z,19.88
2024-03-13T20:01:42.311Z,19.90
2024-03-13T20:04:08.603Z,19.91
2024-03-13T20:06:34.951Z,19.92
2024-03-13T20:09:01.265Z,19.92
2024-03-13T20:11:27.512Z,19.93
2024-03-13T20:13:56.119Z,19.93
2024-03-13T20:16:22.363Z,19.93
2024-03-13T20:18:48.706Z,19.93
2024-03-13T20:21:14.930Z,19.95
2024-03-13T20:23:41.165Z,19.95
2024-03-13T20:26:07.426Z,19.94
2024-03-13T20:28:33.870Z,19.95
2024-03-13T20:31:00.156Z,19.95
2024-03-13T20:33:26.527Z,19.96
2024-03-13T20:35:52.988Z,19.96
2024-03-13T20:38:19.317Z,19.95
2024-03-13T20:40:45.537Z,19.96
2024-03-13T20:43:11.754Z,19.96
2024-03-13T20:45:38.175Z,19.96
2024-03-13T20:48:04.581Z,19.96
2024-03-13T20:50:30.859Z,19.97
2024-03-13T20:52:57.317Z,19.96
2024-03-13T20:55:23.533Z,19.97
2024-03-13T20:57:49.930Z,19.97
2024-03-13T21:00:16.205Z,19.97
2024-03-13T21:02:42.485Z,19.97
2024-03-13T21:05:08.832Z,19.98
2024-03-13T21:07:35.060Z,19.98
2024-03-13T21:10:01.270Z,19.98
2024-03-13T21:12:27.601Z,19.97
2024-03-13T21:14:53.926Z,19.98
2024-03-13T21:17:20.221Z,19.98
2024-03-13T21:19:46.416Z,19.99
2024-03-13T21:22:12.629Z,20.00
2024-03-13T21:24:38.924Z,19.99
2024-03-13T21:27:05.165Z,19.99
2024-03-13T21:29:31.412Z,20.00
2024-03-13T21:31:57.723Z,19.99
2024-03-13T21:34:28.519Z,19.99
2024-03-13T21:36:59.050Z,19.99
2024-03-13T21:45:04.819Z,20.00
2024-03-13T21:47:31.183Z,20.00
2024-03-13T21:49:57.487Z,20.00
2024-03-13T21:52:23.830Z,20.00
2024-03-13T21:54:50.179Z,19.99
2024-03-13T21:57:16.465Z,20.01
2024-03-13T21:59:42.686Z,20.01
2024-03-13T22:02:09.047Z,20.01
2024-03-13T22:04:35.305Z,20.03
2024-03-13T22:07:01.513Z,20.03
2024-03-13T22:09:27.781Z,20.03
2024-03-13T22:11:54.346Z,20.04
2024-03-13T22:14:20.621Z,20.04
2024-03-13T22:16:46.827Z,20.04
2024-03-13T22:19:13.094Z,20.05
2024-03-13T22:21:39.286Z,20.04
2024-03-13T22:24:05.495Z,20.04
2024-03-13T22:26:31.709Z,20.05
2024-03-13T22:28:57.941Z,20.05
2024-03-13T22:31:24.535Z,20.05
2024-03-13T22:33:50.923Z,20.05
2024-03-13T22:36:17.306Z,20.05
2024-03-13T22:38:43.785Z,20.03
2024-03-13T22:41:10.100Z,20.05
2024-03-13T22:43:36.311Z,20.04
2024-03-13T22:46:02.696Z,20.04
2024-03-13T22:48:29.112Z,20.04
2024-03-13T22:50:57.444Z,20.03
2024-03-13T22:53:23.989Z,20.03
2024-03-13T22:55:50.201Z,20.03
2024-03-13T22:58:16.444Z,20.02
2024-03-13T23:00:42.654Z,20.00
2024-03-13T23:03:09.083Z,20.00
2024-03-13T23:05:35.470Z,19.99
2024-03-13T23:08:01.699Z,19.93
2024-03-13T23:10:27.905Z,19.84
2024-03-13T23:12:54.145Z,19.74
2024-03-13T23:15:20.406Z,19.66
2024-03-13T23:17:46.848Z,19.60
2024-03-13T23:20:13.265Z,19.53
2024-03-13T23:22:39.587Z,19.47
2024-03-13T23:25:05.858Z,19.41
2024-03-13T23:27:32.153Z,19.36
2024-03-13T23:29:58.380Z,19.31
2024-03-13T23:32:24.596Z,19.28
2024-03-13T23:34:50.788Z,19.24
2024-03-13T23:37:18.963Z,19.18
2024-03-13T23:39:45.273Z,19.15
2024-03-13T23:42:11.625Z,19.11
2024-03-13T23:44:38.891Z,19.07
2024-03-13T23:47:05.336Z,19.04
2024-03-13T23:49:31.588Z,19.05
2024-03-13T23:51:57.956Z,19.13
2024-03-13T23:54:24.306Z,19.23
2024-03-13T23:56:50.613Z,19.31
2024-03-13T23:59:16.856Z,19.39
